createdAt,value
2019-03-23T00:00:43.640Z,102053.39
2019-03-23T00:03:16.207Z,102060.75
2019-03-23T00:05:48.825Z,102062.11
2019-03-23T00:08:21.365Z,102056.91
2019-03-23T00:10:54.106Z,102056.92
2019-03-23T00:13:26.630Z,102060.84
2019-03-23T00:15:59.326Z,102052.20
2019-03-23T00:18:31.910Z,102044.45
2019-03-23T00:21:04.773Z,102043.60
2019-03-23T00:23:37.332Z,102050.52
2019-03-23T00:26:10.044Z,102049.67
2019-03-23T00:28:42.834Z,102045.41
2019-03-23T00:31:15.385Z,102041.12
2019-03-23T00:33:48.010Z,102040.70
2019-03-23T00:36:20.714Z,102034.28
2019-03-23T00:38:53.286Z,102024.38
2019-03-23T00:41:26.131Z,102027.42
2019-03-23T00:43:58.838Z,102030.03
2019-03-23T00:46:31.489Z,102029.61
2019-03-23T00:49:04.499Z,102033.11
2019-03-23T00:51:37.207Z,102033.13
2019-03-23T00:54:09.783Z,102028.84
2019-03-23T00:56:42.397Z,102029.75
2019-03-23T00:59:15.510Z,102027.58
2019-03-23T01:01:48.109Z,102021.14
2019-03-23T01:04:20.662Z,102025.48
2019-03-23T01:06:53.282Z,102016.82
2019-03-23T01:09:25.839Z,102023.36
2019-03-23T01:11:58.520Z,102012.99
2019-03-23T01:14:31.121Z,102003.05
2019-03-23T01:17:04.030Z,102000.02
2019-03-23T01:19:36.774Z,101994.00
2019-03-23T01:22:09.435Z,102004.38
2019-03-23T01:24:42.006Z,102002.23
2019-03-23T01:27:14.589Z,102010.02
2019-03-23T01:29:47.168Z,102006.13
2019-03-23T01:32:19.759Z,101999.20
2019-03-23T01:34:52.313Z,102001.80
2019-03-23T01:37:25.017Z,102002.69
2019-03-23T01:39:57.553Z,102003.97
2019-03-23T01:42:30.137Z,102003.53
2019-03-23T01:45:02.714Z,102007.44
2019-03-23T01:47:35.345Z,102008.74
2019-03-23T01:50:09.150Z,102003.16
2019-03-23T01:52:41.689Z,102005.31
2019-03-23T01:55:14.263Z,102004.05
2019-03-23T01:57:46.819Z,101998.88
2019-03-23T02:00:20.028Z,101997.14
2019-03-23T02:02:52.644Z,101994.14
2019-03-23T02:05:25.330Z,101995.84
2019-03-23T02:07:57.929Z,101994.59
2019-03-23T02:10:30.476Z,101995.90
2019-03-23T02:13:03.062Z,101992.46
2019-03-23T02:15:36.004Z,101988.12
2019-03-23T02:18:08.566Z,101984.28
2019-03-23T02:20:41.289Z,101980.80
2019-03-23T02:23:13.877Z,101982.14
2019-03-23T02:25:46.475Z,101975.22
2019-03-23T02:28:19.086Z,101974.36
2019-03-23T02:30:51.987Z,101971.33
2019-03-23T02:33:24.538Z,101971.77
2019-03-23T02:35:57.138Z,101970.92
2019-03-23T02:38:29.800Z,101962.25
2019-03-23T02:41:02.389Z,101970.88
2019-03-23T02:43:35.167Z,101960.95
2019-03-23T02:46:07.726Z,101961.41
2019-03-23T02:48:40.317Z,101963.15
2019-03-23T02:51:13.161Z,101960.97
2019-03-23T02:53:45.800Z,101959.70
2019-03-23T02:56:18.390Z,101958.41
2019-03-23T02:58:51.022Z,101954.09
2019-03-23T03:01:24.139Z,101955.83
2019-03-23T03:03:56.696Z,101961.86
2019-03-23T03:06:29.241Z,101965.34
2019-03-23T03:09:01.797Z,101965.34
2019-03-23T03:11:35.908Z,101962.76
2019-03-23T03:14:09.890Z,101952.84
2019-03-23T03:16:43.803Z,101949.39
2019-03-23T03:19:16.381Z,101953.73
2019-03-23T03:21:49.088Z,101951.58
2019-03-23T03:24:21.653Z,101948.98
2019-03-23T03:26:54.240Z,101947.69
2019-03-23T03:29:26.817Z,101949.84
2019-03-23T03:31:59.419Z,101946.39
2019-03-23T03:34:31.966Z,101943.36
2019-03-23T03:37:04.504Z,101944.22
2019-03-23T03:39:37.118Z,101942.06
2019-03-23T03:42:09.871Z,101934.30
2019-03-23T03:44:42.471Z,101948.14
2019-03-23T03:47:15.005Z,101952.44
2019-03-23T03:49:47.589Z,101948.14
2019-03-23T03:52:20.472Z,101945.55
2019-03-23T03:54:54.307Z,101943.84
2019-03-23T03:57:26.867Z,101946.44
2019-03-23T03:59:59.500Z,101951.61
2019-03-23T04:02:32.442Z,101942.55
2019-03-23T04:05:05.217Z,101942.11
2019-03-23T04:07:37.847Z,101948.17
2019-03-23T04:10:11.578Z,101947.28
2019-03-23T04:12:44.167Z,101957.23
2019-03-23T04:15:17.966Z,101957.64
2019-03-23T04:17:50.657Z,101957.23
2019-03-23T04:20:23.241Z,101952.47
2019-03-23T04:22:55.814Z,101948.14
2019-03-23T04:25:28.387Z,101941.66
2019-03-23T04:28:00.936Z,101948.58
2019-03-23T04:30:34.608Z,101946.43
2019-03-23T04:33:07.138Z,101942.98
2019-03-23T04:35:39.728Z,101936.52
2019-03-23T04:38:22.204Z,101936.92
2019-03-23T04:40:46.589Z,101934.33
2019-03-23T04:43:19.154Z,101933.48
2019-03-23T04:45:51.747Z,101934.33
2019-03-23T04:48:24.590Z,101937.36
2019-03-23T04:50:57.199Z,101938.22
2019-03-23T04:53:29.734Z,101935.19
2019-03-23T04:56:02.357Z,101934.74
2019-03-23T04:58:34.937Z,101931.70
2019-03-23T05:01:07.552Z,101933.88
2019-03-23T05:03:40.358Z,101936.88
2019-03-23T05:06:12.944Z,101939.02
2019-03-23T05:08:45.505Z,101935.98
2019-03-23T05:11:18.255Z,101942.86
2019-03-23T05:13:50.892Z,101942.81
2019-03-23T05:16:23.425Z,101947.14
2019-03-23T05:18:56.069Z,101954.02
2019-03-23T05:21:28.640Z,101942.30
2019-03-23T05:24:01.255Z,101942.28
2019-03-23T05:26:33.814Z,101941.38
2019-03-23T05:29:06.452Z,101938.76
2019-03-23T05:31:40.187Z,101940.41
2019-03-23T05:34:12.994Z,101943.37
2019-03-23T05:36:45.550Z,101935.06
2019-03-23T05:39:18.130Z,101935.42
2019-03-23T05:41:50.697Z,101926.28
2019-03-23T05:44:23.414Z,101933.11
2019-03-23T05:46:55.992Z,101927.33
2019-03-23T05:49:28.574Z,101925.45
2019-03-23T05:52:01.574Z,101924.08
2019-03-23T05:54:34.166Z,101919.59
2019-03-23T05:57:06.773Z,101918.58
2019-03-23T05:59:39.338Z,101915.34
2019-03-23T06:02:11.926Z,101914.74
2019-03-23T06:04:45.954Z,101913.76
2019-03-23T06:07:18.493Z,101920.48
2019-03-23T06:09:51.422Z,101915.11
2019-03-23T06:12:23.974Z,101915.73
2019-03-23T06:14:56.588Z,101906.88
2019-03-23T06:17:29.167Z,101906.34
2019-03-23T06:20:02.023Z,101905.92
2019-03-23T06:22:34.686Z,101903.66
2019-03-23T06:25:08.486Z,101905.03
2019-03-23T06:27:41.090Z,101904.94
2019-03-23T06:30:13.685Z,101908.23
2019-03-23T06:32:46.389Z,101909.62
2019-03-23T06:35:19.201Z,101908.92
2019-03-23T06:37:51.946Z,101914.28
2019-03-23T06:40:24.546Z,101921.02
2019-03-23T06:42:59.986Z,101919.19
2019-03-23T06:45:31.442Z,101920.09
2019-03-23T06:48:04.046Z,101918.88
2019-03-23T06:50:36.614Z,101913.62
2019-03-23T06:53:09.269Z,101913.39
2019-03-23T06:55:43.206Z,101913.17
2019-03-23T06:58:15.803Z,101907.82
2019-03-23T07:00:48.400Z,101906.38
2019-03-23T07:03:20.993Z,101894.13
2019-03-23T07:05:53.752Z,101889.58
2019-03-23T07:08:31.812Z,101889.17
2019-03-23T07:11:00.660Z,101890.60
2019-03-23T07:13:33.325Z,101877.87
2019-03-23T07:16:05.926Z,101881.48
2019-03-23T07:18:38.530Z,101877.36
2019-03-23T07:21:11.407Z,101883.22
2019-03-23T07:23:44.019Z,101885.43
2019-03-23T07:26:16.665Z,101886.17
2019-03-23T07:28:49.320Z,101881.48
2019-03-23T07:31:21.876Z,101877.70
2019-03-23T07:33:54.520Z,101875.06
2019-03-23T07:36:27.355Z,101873.38
2019-03-23T07:38:59.987Z,101870.77
2019-03-23T07:41:32.545Z,101869.69
2019-03-23T07:44:05.313Z,101870.82
2019-03-23T07:46:38.221Z,101866.42
2019-03-23T07:49:10.871Z,101854.14
2019-03-23T07:51:43.646Z,101850.73
2019-03-23T07:54:16.293Z,101847.26
2019-03-23T07:56:49.167Z,101841.63
2019-03-23T07:59:21.768Z,101840.25
2019-03-23T08:01:54.342Z,101831.83
2019-03-23T08:04:27.008Z,101829.34
2019-03-23T08:06:59.973Z,101828.84
2019-03-23T08:09:37.611Z,101827.91
2019-03-23T08:12:07.022Z,101824.62
2019-03-23T08:14:39.689Z,101822.55
2019-03-23T08:17:12.307Z,101819.00
2019-03-23T08:19:44.931Z,101821.94
2019-03-23T08:22:17.713Z,101818.76
2019-03-23T08:24:50.355Z,101808.84
2019-03-23T08:27:22.954Z,101800.64
2019-03-23T08:29:55.592Z,101798.09
2019-03-23T08:32:28.231Z,101799.02
2019-03-23T08:35:00.919Z,101805.59
2019-03-23T08:37:33.573Z,101805.52
2019-03-23T08:40:07.118Z,101807.25
2019-03-23T08:42:39.737Z,101802.76
2019-03-23T08:45:12.472Z,101801.61
2019-03-23T08:47:46.139Z,101804.14
2019-03-23T08:50:18.858Z,101796.31
2019-03-23T08:52:51.578Z,101797.05
2019-03-23T08:55:24.242Z,101788.62
2019-03-23T08:57:57.304Z,101780.77
2019-03-23T09:00:29.860Z,101779.13
2019-03-23T09:03:03.789Z,101769.80
2019-03-23T09:05:37.158Z,101768.02
2019-03-23T09:08:09.945Z,101771.25
2019-03-23T09:10:42.597Z,101768.22
2019-03-23T09:13:15.182Z,101769.09
2019-03-23T09:15:47.849Z,101767.00
2019-03-23T09:18:21.270Z,101767.81
2019-03-23T09:20:53.884Z,101773.28
2019-03-23T09:23:26.545Z,101757.28
2019-03-23T09:25:59.105Z,101758.02
2019-03-23T09:28:31.700Z,101751.39
2019-03-23T09:31:04.300Z,101752.77
2019-03-23T09:33:36.881Z,101752.88
2019-03-23T09:36:09.501Z,101748.56
2019-03-23T09:38:42.380Z,101743.61
2019-03-23T09:41:15.045Z,101743.64
2019-03-23T09:43:47.637Z,101737.93
2019-03-23T09:46:20.334Z,101744.47
2019-03-23T09:48:52.992Z,101739.37
2019-03-23T09:51:25.610Z,101725.33
2019-03-23T09:53:58.652Z,101730.78
2019-03-23T09:56:31.263Z,101727.64
2019-03-23T09:59:03.967Z,101732.48
2019-03-23T10:01:36.669Z,101729.13
2019-03-23T10:04:09.269Z,101715.35
2019-03-23T10:06:42.096Z,101705.70
2019-03-23T10:09:15.071Z,101701.66
2019-03-23T10:11:47.692Z,101702.81
2019-03-23T10:14:20.406Z,101698.72
2019-03-23T10:16:53.030Z,101697.31
2019-03-23T10:19:25.703Z,101691.15
2019-03-23T10:21:58.351Z,101690.41
2019-03-23T10:24:31.271Z,101687.65
2019-03-23T10:27:04.311Z,101686.50
2019-03-23T10:29:37.212Z,101680.97
2019-03-23T10:32:09.914Z,101678.03
2019-03-23T10:34:42.641Z,101671.19
2019-03-23T10:37:15.414Z,101676.90
2019-03-23T10:39:48.329Z,101667.76
2019-03-23T10:42:21.003Z,101663.84
2019-03-23T10:44:53.618Z,101662.61
2019-03-23T10:47:26.384Z,101654.11
2019-03-23T10:49:59.074Z,101661.03
2019-03-23T10:52:31.718Z,101655.23
2019-03-23T10:55:04.790Z,101649.19
2019-03-23T10:57:37.418Z,101654.88
2019-03-23T11:00:11.273Z,101647.05
2019-03-23T11:02:44.501Z,101647.84
2019-03-23T11:05:17.263Z,101643.63
2019-03-23T11:07:49.921Z,101636.00
2019-03-23T11:10:22.775Z,101634.36
2019-03-23T11:12:55.521Z,101632.92
2019-03-23T11:15:28.310Z,101633.48
2019-03-23T11:18:00.913Z,101630.85
2019-03-23T11:20:33.524Z,101622.55
2019-03-23T11:23:06.191Z,101628.50
2019-03-23T11:25:39.145Z,101619.92
2019-03-23T11:28:11.903Z,101621.70
2019-03-23T11:30:44.485Z,101622.16
2019-03-23T11:33:17.074Z,101613.45
2019-03-23T11:35:57.448Z,101606.23
2019-03-23T11:38:24.048Z,101607.06
2019-03-23T11:40:56.972Z,101614.17
2019-03-23T11:43:29.594Z,101615.75
2019-03-23T11:46:02.202Z,101610.39
2019-03-23T11:48:34.811Z,101614.20
2019-03-23T11:51:07.465Z,101607.91
2019-03-23T11:53:40.029Z,101596.50
2019-03-23T11:56:13.166Z,101594.67
2019-03-23T11:58:45.744Z,101590.63
2019-03-23T12:01:18.800Z,101589.34
2019-03-23T12:03:51.592Z,101583.34
2019-03-23T12:06:24.255Z,101585.77
2019-03-23T12:08:56.886Z,101577.58
2019-03-23T12:11:31.100Z,101565.10
2019-03-23T12:14:03.830Z,101557.82
2019-03-23T12:16:36.625Z,101554.04
2019-03-23T12:19:19.916Z,101544.63
2019-03-23T12:21:52.832Z,101506.67
2019-03-23T12:24:25.510Z,101542.03
2019-03-23T12:26:58.565Z,101532.20
2019-03-23T12:29:31.339Z,101532.27
2019-03-23T12:32:04.060Z,101533.20
2019-03-23T12:34:36.760Z,101532.46
2019-03-23T12:37:09.414Z,101519.89
2019-03-23T12:39:42.134Z,101521.30
2019-03-23T12:42:15.044Z,101518.52
2019-03-23T12:44:47.806Z,101513.41
2019-03-23T12:47:20.629Z,101506.73
2019-03-23T12:49:53.334Z,101492.62
2019-03-23T12:52:25.910Z,101486.42
2019-03-23T12:54:58.525Z,101486.36
2019-03-23T12:57:31.448Z,101482.27
2019-03-23T13:00:04.102Z,101479.88
2019-03-23T13:02:37.783Z,101472.05
2019-03-23T13:05:10.917Z,101471.37
2019-03-23T13:07:43.600Z,101461.52
2019-03-23T13:10:17.658Z,101459.19
2019-03-23T13:12:50.316Z,101452.62
2019-03-23T13:15:22.924Z,101451.73
2019-03-23T13:17:55.563Z,101449.23
2019-03-23T13:20:28.151Z,101438.11
2019-03-23T13:23:00.902Z,101434.14
2019-03-23T13:25:33.503Z,101434.72
2019-03-23T13:28:06.086Z,101419.07
2019-03-23T13:30:38.711Z,101417.30
2019-03-23T13:33:11.379Z,101417.55
2019-03-23T13:35:43.997Z,101411.67
2019-03-23T13:38:16.646Z,101407.45
2019-03-23T13:40:49.260Z,101410.77
2019-03-23T13:43:21.953Z,101398.72
2019-03-23T13:45:54.638Z,101402.13
2019-03-23T13:48:27.415Z,101401.69
2019-03-23T13:51:00.116Z,101399.39
2019-03-23T13:53:32.885Z,101405.33
2019-03-23T13:56:05.571Z,101400.66
2019-03-23T13:58:38.699Z,101403.81
2019-03-23T14:01:11.830Z,101394.51
2019-03-23T14:03:44.621Z,101392.83
2019-03-23T14:06:17.426Z,101393.02
2019-03-23T14:08:50.086Z,101385.13
2019-03-23T14:11:22.813Z,101377.62
2019-03-23T14:13:55.594Z,101375.81
2019-03-23T14:16:28.354Z,101371.88
2019-03-23T14:19:01.033Z,101359.90
2019-03-23T14:21:33.705Z,101349.53
2019-03-23T14:24:06.361Z,101358.91
2019-03-23T14:26:51.760Z,101353.70
2019-03-23T14:29:24.378Z,101348.58
2019-03-23T14:31:57.109Z,101333.83
2019-03-23T14:34:29.959Z,101321.83
2019-03-23T14:37:02.773Z,101322.89
2019-03-23T14:39:35.497Z,101308.66
2019-03-23T14:42:08.136Z,101313.09
2019-03-23T14:44:41.157Z,101307.28
2019-03-23T14:47:14.109Z,101306.61
2019-03-23T14:49:47.038Z,101294.20
2019-03-23T14:52:19.688Z,101289.98
2019-03-23T14:54:52.466Z,101289.72
2019-03-23T14:57:25.224Z,101295.28
2019-03-23T14:59:58.210Z,101294.23
2019-03-23T15:02:30.969Z,101289.57
2019-03-23T15:05:04.199Z,101286.54
2019-03-23T15:07:37.047Z,101281.88
2019-03-23T15:10:11.273Z,101270.53
2019-03-23T15:12:44.000Z,101266.21
2019-03-23T15:15:17.131Z,101261.03
2019-03-23T15:17:49.890Z,101256.92
2019-03-23T15:20:22.571Z,101257.72
2019-03-23T15:22:55.325Z,101262.14
2019-03-23T15:25:28.003Z,101267.17
2019-03-23T15:28:00.629Z,101263.98
2019-03-23T15:30:34.016Z,101257.55
2019-03-23T15:33:06.763Z,101253.77
2019-03-23T15:35:39.761Z,101260.62
2019-03-23T15:38:12.974Z,101257.36
2019-03-23T15:40:45.756Z,101263.98
2019-03-23T15:43:18.535Z,101257.19
2019-03-23T15:45:51.279Z,101268.70
2019-03-23T15:48:24.157Z,101262.75
2019-03-23T15:50:57.298Z,101266.10
2019-03-23T15:53:30.193Z,101270.42
2019-03-23T15:56:03.571Z,101266.96
2019-03-23T15:58:36.242Z,101269.41
2019-03-23T16:01:09.014Z,101264.98
2019-03-23T16:03:41.820Z,101261.39
2019-03-23T16:06:14.712Z,101268.20
2019-03-23T16:08:47.372Z,101265.09
2019-03-23T16:11:20.025Z,101263.73
2019-03-23T16:13:52.665Z,101252.11
2019-03-23T16:16:25.616Z,101244.90
2019-03-23T16:18:58.286Z,101244.73
2019-03-23T16:21:30.940Z,101234.17
2019-03-23T16:24:03.590Z,101229.33
2019-03-23T16:26:36.187Z,101227.34
2019-03-23T16:29:09.743Z,101225.66
2019-03-23T16:31:42.939Z,101219.42
2019-03-23T16:34:15.640Z,101218.08
2019-03-23T16:36:48.250Z,101227.77
2019-03-23T16:39:20.937Z,101221.73
2019-03-23T16:41:53.638Z,101215.04
2019-03-23T16:44:26.304Z,101225.12
2019-03-23T16:46:59.340Z,101225.16
2019-03-23T16:49:32.161Z,101224.40
2019-03-23T16:52:04.864Z,101218.92
2019-03-23T16:54:37.577Z,101227.67
2019-03-23T16:57:10.300Z,101220.48
2019-03-23T16:59:42.982Z,101220.08
2019-03-23T17:02:16.217Z,101211.80
2019-03-23T17:04:48.886Z,101214.70
2019-03-23T17:07:22.039Z,101209.45
2019-03-23T17:09:54.893Z,101213.20
2019-03-23T17:12:27.703Z,101215.83
2019-03-23T17:15:00.386Z,101207.96
2019-03-23T17:17:33.434Z,101199.95
2019-03-23T17:20:08.126Z,101203.86
2019-03-23T17:22:41.649Z,101210.88
2019-03-23T17:25:14.392Z,101211.17
2019-03-23T17:27:47.226Z,101210.49
2019-03-23T17:30:19.946Z,101215.47
2019-03-23T17:32:52.680Z,101218.17
2019-03-23T17:35:25.943Z,101214.44
2019-03-23T17:38:00.012Z,101215.58
2019-03-23T17:40:32.834Z,101217.47
2019-03-23T17:43:06.355Z,101215.30
2019-03-23T17:45:39.360Z,101211.45
2019-03-23T17:48:12.201Z,101210.16
2019-03-23T17:50:44.968Z,101214.70
2019-03-23T17:53:17.755Z,101205.66
2019-03-23T17:55:50.431Z,101208.66
2019-03-23T17:58:23.165Z,101204.72
2019-03-23T18:00:55.803Z,101201.95
2019-03-23T18:03:28.931Z,101203.09
2019-03-23T18:06:01.614Z,101207.05
2019-03-23T18:08:34.751Z,101210.89
2019-03-23T18:11:07.438Z,101208.64
2019-03-23T18:13:40.171Z,101209.00
2019-03-23T18:16:12.880Z,101207.28
2019-03-23T18:18:45.938Z,101206.61
2019-03-23T18:21:18.917Z,101203.78
2019-03-23T18:23:51.627Z,101204.38
2019-03-23T18:26:24.405Z,101208.77
2019-03-23T18:28:57.064Z,101204.88
2019-03-23T18:31:29.744Z,101201.19
2019-03-23T18:34:02.601Z,101203.14
2019-03-23T18:36:35.394Z,101197.97
2019-03-23T18:39:09.585Z,101201.52
2019-03-23T18:41:42.436Z,101189.98
2019-03-23T18:44:16.818Z,101195.89
2019-03-23T18:46:49.827Z,101190.88
2019-03-23T18:49:22.720Z,101187.49
2019-03-23T18:51:55.398Z,101181.08
2019-03-23T18:54:28.150Z,101186.68
2019-03-23T18:57:00.857Z,101187.32
2019-03-23T18:59:33.650Z,101189.37
2019-03-23T19:02:06.458Z,101181.27
2019-03-23T19:04:39.271Z,101181.27
2019-03-23T19:07:11.943Z,101176.37
2019-03-23T19:09:45.258Z,101178.48
2019-03-23T19:12:18.222Z,101171.42
2019-03-23T19:14:51.087Z,101173.58
2019-03-23T19:17:24.051Z,101167.28
2019-03-23T19:19:57.156Z,101165.73
2019-03-23T19:22:30.731Z,101165.14
2019-03-23T19:25:03.732Z,101169.34
2019-03-23T19:27:36.638Z,101172.16
2019-03-23T19:30:12.191Z,101165.91
2019-03-23T19:32:44.919Z,101167.11
2019-03-23T19:35:17.561Z,101163.97
2019-03-23T19:37:50.415Z,101159.42
2019-03-23T19:40:23.168Z,101160.90
2019-03-23T19:42:56.739Z,101155.44
2019-03-23T19:45:29.515Z,101153.41
2019-03-23T19:48:02.225Z,101149.87
2019-03-23T19:50:35.422Z,101147.03
2019-03-23T19:53:08.227Z,101144.64
2019-03-23T19:55:41.126Z,101138.31
2019-03-23T19:58:14.898Z,101137.63
2019-03-23T20:00:47.691Z,101135.03
2019-03-23T20:03:20.654Z,101138.09
2019-03-23T20:05:53.850Z,101138.33
2019-03-23T20:08:26.596Z,101135.72
2019-03-23T20:10:59.925Z,101138.70
2019-03-23T20:13:32.868Z,101138.09
2019-03-23T20:16:05.689Z,101146.31
2019-03-23T20:18:38.780Z,101136.88
2019-03-23T20:21:12.248Z,101139.66
2019-03-23T20:23:45.119Z,101139.84
2019-03-23T20:26:18.698Z,101134.81
2019-03-23T20:28:51.689Z,101135.88
2019-03-23T20:31:24.597Z,101141.83
2019-03-23T20:33:57.410Z,101142.45
2019-03-23T20:36:30.679Z,101134.83
2019-03-23T20:39:05.580Z,101142.86
2019-03-23T20:41:40.013Z,101139.46
2019-03-23T20:44:13.131Z,101136.52
2019-03-23T20:46:46.384Z,101135.34
2019-03-23T20:49:20.329Z,101133.34
2019-03-23T20:51:53.607Z,101133.56
2019-03-23T20:54:26.798Z,101129.88
2019-03-23T20:56:59.680Z,101132.17
2019-03-23T20:59:32.831Z,101122.22
2019-03-23T21:02:05.690Z,101122.15
2019-03-23T21:04:38.543Z,101119.53
2019-03-23T21:07:11.561Z,101114.20
2019-03-23T21:09:44.720Z,101118.44
2019-03-23T21:12:17.791Z,101114.89
2019-03-23T21:14:50.737Z,101116.98
2019-03-23T21:17:23.531Z,101125.13
2019-03-23T21:19:56.246Z,101123.39
2019-03-23T21:22:29.115Z,101129.39
2019-03-23T21:25:01.918Z,101134.09
2019-03-23T21:27:36.309Z,101136.81
2019-03-23T21:30:12.129Z,101126.36
2019-03-23T21:32:45.013Z,101127.05
2019-03-23T21:35:17.826Z,101126.03
2019-03-23T21:37:51.009Z,101128.55
2019-03-23T21:40:23.938Z,101142.11
2019-03-23T21:42:56.753Z,101140.60
2019-03-23T21:45:29.512Z,101148.30
2019-03-23T21:48:02.352Z,101153.71
2019-03-23T21:50:35.385Z,101150.64
2019-03-23T21:53:08.523Z,101152.45
2019-03-23T21:55:41.473Z,101154.51
2019-03-23T21:58:14.304Z,101156.39
2019-03-23T22:00:47.339Z,101156.36
2019-03-23T22:03:21.470Z,101155.96
2019-03-23T22:05:54.227Z,101157.48
2019-03-23T22:08:27.187Z,101156.33
2019-03-23T22:11:01.338Z,101158.81
2019-03-23T22:13:34.592Z,101161.45
2019-03-23T22:16:07.313Z,101156.70
2019-03-23T22:18:42.731Z,101170.78
2019-03-23T22:21:15.513Z,101172.49
2019-03-23T22:23:49.512Z,101180.91
2019-03-23T22:26:22.284Z,101166.52
2019-03-23T22:28:54.935Z,101169.52
2019-03-23T22:31:27.709Z,101177.04
2019-03-23T22:34:00.437Z,101177.20
2019-03-23T22:36:33.029Z,101182.41
2019-03-23T22:39:07.052Z,101195.80
2019-03-23T22:41:39.699Z,101193.45
2019-03-23T22:44:12.346Z,101196.99
2019-03-23T22:46:45.069Z,101203.25
2019-03-23T22:49:17.664Z,101208.66
2019-03-23T22:51:50.305Z,101214.71
2019-03-23T22:54:23.211Z,101211.09
2019-03-23T22:56:55.962Z,101220.08
2019-03-23T22:59:28.670Z,101216.73
2019-03-23T23:02:01.296Z,101230.91
2019-03-23T23:04:33.924Z,101238.78
2019-03-23T23:07:06.616Z,101240.33
2019-03-23T23:09:39.692Z,101236.39
2019-03-23T23:12:12.379Z,101242.12
2019-03-23T23:14:47.108Z,101236.95
2019-03-23T23:17:19.779Z,101249.85
2019-03-23T23:19:53.754Z,101247.89
2019-03-23T23:22:26.628Z,101251.47
2019-03-23T23:24:59.305Z,101254.53
2019-03-23T23:27:31.984Z,101249.20
2019-03-23T23:30:05.193Z,101260.33
2019-03-23T23:32:38.042Z,101256.86
2019-03-23T23:35:11.715Z,101265.50
2019-03-23T23:37:44.330Z,101275.86
2019-03-23T23:40:18.584Z,101270.06
2019-03-23T23:42:51.285Z,101273.23
2019-03-23T23:45:23.883Z,101276.22
2019-03-23T23:47:56.500Z,101274.21
2019-03-23T23:50:29.129Z,101278.22
2019-03-23T23:53:01.716Z,101274.98
2019-03-23T23:55:34.698Z,101269.80
2019-03-23T23:58:07.462Z,101275.68
